sensor_id;sensor_type;location;lat;lon;timestamp;temperature;humidity
54006;DHT22;39919;38.160;-122.260;2023-04-06T00:02:24;18.40;71.70
54006;DHT22;39919;38.160;-122.260;2023-04-06T00:04:53;18.50;72.20
54006;DHT22;39919;38.160;-122.260;2023-04-06T00:07:22;18.50;72.80
54006;DHT22;39919;38.160;-122.260;2023-04-06T00:09:52;18.50;72.70
54006;DHT22;39919;38.160;-122.260;2023-04-06T00:12:21;18.40;72.10
54006;DHT22;39919;38.160;-122.260;2023-04-06T00:14:51;18.40;71.50
54006;DHT22;39919;38.160;-122.260;2023-04-06T00:17:20;18.40;69.90
54006;DHT22;39919;38.160;-122.260;2023-04-06T00:19:50;18.40;69.60
54006;DHT22;39919;38.160;-122.260;2023-04-06T00:22:19;18.40;68.90
54006;DHT22;39919;38.160;-122.260;2023-04-06T00:24:48;18.30;69.10
54006;DHT22;39919;38.160;-122.260;2023-04-06T00:27:17;18.20;71.30
54006;DHT22;39919;38.160;-122.260;2023-04-06T00:47:25;17.60;46.30
54006;DHT22;39919;38.160;-122.260;2023-04-06T00:49:57;17.50;47.20
54006;DHT22;39919;38.160;-122.260;2023-04-06T00:52:26;17.40;47.30
54006;DHT22;39919;38.160;-122.260;2023-04-06T00:55:01;17.30;47.30
54006;DHT22;39919;38.160;-122.260;2023-04-06T00:57:31;17.20;47.20
54006;DHT22;39919;38.160;-122.260;2023-04-06T01:00:00;17.10;47.10
54006;DHT22;39919;38.160;-122.260;2023-04-06T01:02:32;17.10;48.10
54006;DHT22;39919;38.160;-122.260;2023-04-06T01:05:01;17.00;48.50
54006;DHT22;39919;38.160;-122.260;2023-04-06T01:07:30;16.90;48.80
54006;DHT22;39919;38.160;-122.260;2023-04-06T01:09:59;16.90;49.60
54006;DHT22;39919;38.160;-122.260;2023-04-06T01:12:29;16.80;50.50
54006;DHT22;39919;38.160;-122.260;2023-04-06T01:14:59;16.70;51.00
54006;DHT22;39919;38.160;-122.260;2023-04-06T01:17:28;16.70;52.10
54006;DHT22;39919;38.160;-122.260;2023-04-06T01:19:59;16.70;52.70
54006;DHT22;39919;38.160;-122.260;2023-04-06T01:22:30;16.60;52.80
54006;DHT22;39919;38.160;-122.260;2023-04-06T01:24:59;16.60;53.20
54006;DHT22;39919;38.160;-122.260;2023-04-06T01:27:28;16.50;53.40
54006;DHT22;39919;38.160;-122.260;2023-04-06T01:30:00;16.50;54.50
54006;DHT22;39919;38.160;-122.260;2023-04-06T01:32:29;16.40;54.80
54006;DHT22;39919;38.160;-122.260;2023-04-06T01:34:59;16.40;54.60
54006;DHT22;39919;38.160;-122.260;2023-04-06T01:37:29;16.30;53.50
54006;DHT22;39919;38.160;-122.260;2023-04-06T01:40:02;16.30;53.70
54006;DHT22;39919;38.160;-122.260;2023-04-06T01:42:31;16.20;52.80
54006;DHT22;39919;38.160;-122.260;2023-04-06T01:45:00;16.10;53.20
54006;DHT22;39919;38.160;-122.260;2023-04-06T01:47:29;16.00;54.10
54006;DHT22;39919;38.160;-122.260;2023-04-06T01:49:58;16.00;54.60
54006;DHT22;39919;38.160;-122.260;2023-04-06T01:52:31;15.90;55.10
54006;DHT22;39919;38.160;-122.260;2023-04-06T01:55:00;15.80;54.60
54006;DHT22;39919;38.160;-122.260;2023-04-06T01:57:29;15.80;54.80
54006;DHT22;39919;38.160;-122.260;2023-04-06T01:59:58;15.70;55.10
54006;DHT22;39919;38.160;-122.260;2023-04-06T02:02:30;15.70;55.70
54006;DHT22;39919;38.160;-122.260;2023-04-06T02:04:59;15.60;56.30
54006;DHT22;39919;38.160;-122.260;2023-04-06T02:07:30;15.50;56.60
54006;DHT22;39919;38.160;-122.260;2023-04-06T02:10:12;15.40;57.40
54006;DHT22;39919;38.160;-122.260;2023-04-06T02:12:41;15.40;58.00
54006;DHT22;39919;38.160;-122.260;2023-04-06T02:15:10;15.30;58.60
54006;DHT22;39919;38.160;-122.260;2023-04-06T02:17:40;15.30;59.30
54006;DHT22;39919;38.160;-122.260;2023-04-06T02:20:10;15.20;60.10
54006;DHT22;39919;38.160;-122.260;2023-04-06T02:22:41;15.20;60.50
54006;DHT22;39919;38.160;-122.260;2023-04-06T02:25:10;15.10;61.10
54006;DHT22;39919;38.160;-122.260;2023-04-06T02:27:39;15.00;61.50
54006;DHT22;39919;38.160;-122.260;2023-04-06T02:30:09;15.00;61.70
54006;DHT22;39919;38.160;-122.260;2023-04-06T02:32:38;14.90;62.00
54006;DHT22;39919;38.160;-122.260;2023-04-06T02:35:08;14.80;62.60
54006;DHT22;39919;38.160;-122.260;2023-04-06T02:37:37;14.70;62.40
54006;DHT22;39919;38.160;-122.260;2023-04-06T02:40:09;14.70;62.50
54006;DHT22;39919;38.160;-122.260;2023-04-06T02:42:38;14.60;62.70
54006;DHT22;39919;38.160;-122.260;2023-04-06T02:45:08;14.50;63.00
54006;DHT22;39919;38.160;-122.260;2023-04-06T02:47:37;14.40;63.20
54006;DHT22;39919;38.160;-122.260;2023-04-06T02:50:06;14.30;63.50
54006;DHT22;39919;38.160;-122.260;2023-04-06T02:52:41;14.20;63.80
54006;DHT22;39919;38.160;-122.260;2023-04-06T02:55:12;14.10;63.90
54006;DHT22;39919;38.160;-122.260;2023-04-06T02:57:41;14.00;64.00
54006;DHT22;39919;38.160;-122.260;2023-04-06T03:00:11;13.90;64.00
54006;DHT22;39919;38.160;-122.260;2023-04-06T03:02:43;13.80;64.10
54006;DHT22;39919;38.160;-122.260;2023-04-06T03:05:12;13.70;64.30
54006;DHT22;39919;38.160;-122.260;2023-04-06T03:07:44;13.60;64.70
54006;DHT22;39919;38.160;-122.260;2023-04-06T03:10:15;13.50;64.80
54006;DHT22;39919;38.160;-122.260;2023-04-06T03:12:44;13.50;64.80
54006;DHT22;39919;38.160;-122.260;2023-04-06T03:15:14;13.40;64.90
54006;DHT22;39919;38.160;-122.260;2023-04-06T03:17:43;13.30;65.00
54006;DHT22;39919;38.160;-122.260;2023-04-06T03:20:15;13.20;64.90
54006;DHT22;39919;38.160;-122.260;2023-04-06T03:22:44;13.10;64.90
54006;DHT22;39919;38.160;-122.260;2023-04-06T03:25:15;13.00;65.00
54006;DHT22;39919;38.160;-122.260;2023-04-06T03:27:44;12.90;65.10
54006;DHT22;39919;38.160;-122.260;2023-04-06T03:30:16;12.90;65.30
54006;DHT22;39919;38.160;-122.260;2023-04-06T03:32:47;12.80;65.50
54006;DHT22;39919;38.160;-122.260;2023-04-06T03:35:16;12.70;65.90
54006;DHT22;39919;38.160;-122.260;2023-04-06T03:37:45;12.60;66.00
54006;DHT22;39919;38.160;-122.260;2023-04-06T03:40:19;12.60;66.30
54006;DHT22;39919;38.160;-122.260;2023-04-06T03:42:54;12.50;66.60
54006;DHT22;39919;38.160;-122.260;2023-04-06T03:45:23;12.50;67.20
54006;DHT22;39919;38.160;-122.260;2023-04-06T03:47:54;12.40;67.70
54006;DHT22;39919;38.160;-122.260;2023-04-06T03:50:24;12.30;67.50
54006;DHT22;39919;38.160;-122.260;2023-04-06T03:52:53;12.30;68.30
54006;DHT22;39919;38.160;-122.260;2023-04-06T03:55:26;12.20;67.90
54006;DHT22;39919;38.160;-122.260;2023-04-06T03:57:55;12.20;69.00
54006;DHT22;39919;38.160;-122.260;2023-04-06T04:00:24;12.10;69.50
54006;DHT22;39919;38.160;-122.260;2023-04-06T04:05:25;12.00;69.80
54006;DHT22;39919;38.160;-122.260;2023-04-06T04:07:57;12.00;70.20
54006;DHT22;39919;38.160;-122.260;2023-04-06T04:10:31;11.90;70.70
54006;DHT22;39919;38.160;-122.260;2023-04-06T04:13:00;11.90;70.20
54006;DHT22;39919;38.160;-122.260;2023-04-06T04:15:29;11.80;70.70
54006;DHT22;39919;38.160;-122.260;2023-04-06T04:17:58;11.80;71.10
54006;DHT22;39919;38.160;-122.260;2023-04-06T04:20:28;11.80;71.30
54006;DHT22;39919;38.160;-122.260;2023-04-06T04:22:57;11.70;71.70
54006;DHT22;39919;38.160;-122.260;2023-04-06T04:25:26;11.70;71.40
54006;DHT22;39919;38.160;-122.260;2023-04-06T04:27:57;11.60;71.20
54006;DHT22;39919;38.160;-122.260;2023-04-06T04:30:26;11.50;71.30
54006;DHT22;39919;38.160;-122.260;2023-04-06T04:32:55;11.50;71.30
54006;DHT22;39919;38.160;-122.260;2023-04-06T04:35:24;11.50;72.10
54006;DHT22;39919;38.160;-122.260;2023-04-06T04:37:57;11.40;72.70
54006;DHT22;39919;38.160;-122.260;2023-04-06T04:42:57;11.40;73.10
54006;DHT22;39919;38.160;-122.260;2023-04-06T04:47:57;12.30;92.90
54006;DHT22;39919;38.160;-122.260;2023-04-06T04:50:28;11.40;93.70
54006;DHT22;39919;38.160;-122.260;2023-04-06T04:55:31;11.10;96.90
54006;DHT22;39919;38.160;-122.260;2023-04-06T05:50:24;10.60;95.40
54006;DHT22;39919;38.160;-122.260;2023-04-06T05:52:53;10.60;95.40
54006;DHT22;39919;38.160;-122.260;2023-04-06T05:55:22;10.40;79.10
54006;DHT22;39919;38.160;-122.260;2023-04-06T05:57:51;10.30;79.40
54006;DHT22;39919;38.160;-122.260;2023-04-06T06:00:21;10.30;80.10
54006;DHT22;39919;38.160;-122.260;2023-04-06T06:02:50;10.20;80.10
54006;DHT22;39919;38.160;-122.260;2023-04-06T06:05:21;10.20;80.10
54006;DHT22;39919;38.160;-122.260;2023-04-06T06:07:51;10.20;80.50
54006;DHT22;39919;38.160;-122.260;2023-04-06T06:10:23;10.10;81.30
54006;DHT22;39919;38.160;-122.260;2023-04-06T06:12:53;10.10;81.80
54006;DHT22;39919;38.160;-122.260;2023-04-06T06:15:22;10.00;81.80
54006;DHT22;39919;38.160;-122.260;2023-04-06T06:17:54;10.00;82.10
54006;DHT22;39919;38.160;-122.260;2023-04-06T06:20:25;10.00;83.10
54006;DHT22;39919;38.160;-122.260;2023-04-06T06:22:56;9.90;83.70
54006;DHT22;39919;38.160;-122.260;2023-04-06T06:25:25;9.90;84.60
54006;DHT22;39919;38.160;-122.260;2023-04-06T06:27:57;9.90;85.30
54006;DHT22;39919;38.160;-122.260;2023-04-06T06:30:30;9.90;85.60
54006;DHT22;39919;38.160;-122.260;2023-04-06T06:32:59;9.80;86.00
54006;DHT22;39919;38.160;-122.260;2023-04-06T06:35:30;9.80;86.20
54006;DHT22;39919;38.160;-122.260;2023-04-06T06:37:59;9.80;85.80
54006;DHT22;39919;38.160;-122.260;2023-04-06T06:40:28;9.70;85.90
54006;DHT22;39919;38.160;-122.260;2023-04-06T06:42:57;9.70;85.60
54006;DHT22;39919;38.160;-122.260;2023-04-06T06:45:26;9.70;85.20
54006;DHT22;39919;38.160;-122.260;2023-04-06T06:47:56;9.60;84.70
54006;DHT22;39919;38.160;-122.260;2023-04-06T06:50:25;9.60;85.60
54006;DHT22;39919;38.160;-122.260;2023-04-06T06:52:56;9.60;86.20
54006;DHT22;39919;38.160;-122.260;2023-04-06T06:55:26;9.50;87.20
54006;DHT22;39919;38.160;-122.260;2023-04-06T06:57:55;9.50;87.70
54006;DHT22;39919;38.160;-122.260;2023-04-06T07:00:33;9.50;88.50
54006;DHT22;39919;38.160;-122.260;2023-04-06T07:03:02;9.40;89.40
54006;DHT22;39919;38.160;-122.260;2023-04-06T07:05:33;9.40;90.00
54006;DHT22;39919;38.160;-122.260;2023-04-06T07:08:04;9.30;90.00
54006;DHT22;39919;38.160;-122.260;2023-04-06T07:10:33;9.40;90.60
54006;DHT22;39919;38.160;-122.260;2023-04-06T07:13:02;9.40;91.90
54006;DHT22;39919;38.160;-122.260;2023-04-06T07:15:31;9.40;95.30
54006;DHT22;39919;38.160;-122.260;2023-04-06T07:18:00;9.40;99.90
54006;DHT22;39919;38.160;-122.260;2023-04-06T07:20:29;9.30;99.50
54006;DHT22;39919;38.160;-122.260;2023-04-06T07:23:03;9.30;99.30
54006;DHT22;39919;38.160;-122.260;2023-04-06T07:25:32;9.20;99.40
54006;DHT22;39919;38.160;-122.260;2023-04-06T07:28:01;9.20;99.40
54006;DHT22;39919;38.160;-122.260;2023-04-06T07:30:31;9.20;99.60
54006;DHT22;39919;38.160;-122.260;2023-04-06T07:33:00;9.20;99.50
54006;DHT22;39919;38.160;-122.260;2023-04-06T07:35:29;9.10;99.30
54006;DHT22;39919;38.160;-122.260;2023-04-06T07:37:59;9.10;92.30
54006;DHT22;39919;38.160;-122.260;2023-04-06T07:40:29;9.00;92.10
54006;DHT22;39919;38.160;-122.260;2023-04-06T07:42:59;9.00;92.20
54006;DHT22;39919;38.160;-122.260;2023-04-06T07:45:28;9.00;92.10
54006;DHT22;39919;38.160;-122.260;2023-04-06T07:47:58;8.90;91.90
54006;DHT22;39919;38.160;-122.260;2023-04-06T07:50:27;8.90;91.90
54006;DHT22;39919;38.160;-122.260;2023-04-06T07:52:56;8.90;91.90
54006;DHT22;39919;38.160;-122.260;2023-04-06T07:55:28;8.90;92.30
54006;DHT22;39919;38.160;-122.260;2023-04-06T07:57:57;8.80;93.30
54006;DHT22;39919;38.160;-122.260;2023-04-06T08:00:27;8.80;94.60
54006;DHT22;39919;38.160;-122.260;2023-04-06T08:02:56;8.80;95.50
54006;DHT22;39919;38.160;-122.260;2023-04-06T08:05:25;8.80;95.70
54006;DHT22;39919;38.160;-122.260;2023-04-06T08:07:57;8.80;96.30
54006;DHT22;39919;38.160;-122.260;2023-04-06T08:10:28;8.70;96.80
54006;DHT22;39919;38.160;-122.260;2023-04-06T08:12:58;8.70;97.10
54006;DHT22;39919;38.160;-122.260;2023-04-06T08:15:29;8.80;97.50
54006;DHT22;39919;38.160;-122.260;2023-04-06T08:17:58;8.80;97.60
54006;DHT22;39919;38.160;-122.260;2023-04-06T08:20:29;8.70;97.80
54006;DHT22;39919;38.160;-122.260;2023-04-06T08:22:58;8.70;97.90
54006;DHT22;39919;38.160;-122.260;2023-04-06T08:25:29;8.70;98.10
54006;DHT22;39919;38.160;-122.260;2023-04-06T08:27:58;8.70;98.10
54006;DHT22;39919;38.160;-122.260;2023-04-06T08:30:30;8.70;98.00
54006;DHT22;39919;38.160;-122.260;2023-04-06T08:32:59;8.70;97.80
54006;DHT22;39919;38.160;-122.260;2023-04-06T08:35:28;8.70;97.60
54006;DHT22;39919;38.160;-122.260;2023-04-06T08:37:57;8.70;97.50
54006;DHT22;39919;38.160;-122.260;2023-04-06T08:40:29;8.70;97.20
54006;DHT22;39919;38.160;-122.260;2023-04-06T08:43:00;8.70;97.10
54006;DHT22;39919;38.160;-122.260;2023-04-06T08:45:35;8.70;96.90
54006;DHT22;39919;38.160;-122.260;2023-04-06T08:48:08;8.70;96.80
54006;DHT22;39919;38.160;-122.260;2023-04-06T08:50:38;8.60;96.80
54006;DHT22;39919;38.160;-122.260;2023-04-06T08:53:08;8.60;96.60
54006;DHT22;39919;38.160;-122.260;2023-04-06T08:55:39;8.60;96.40
54006;DHT22;39919;38.160;-122.260;2023-04-06T08:58:09;8.60;96.40
54006;DHT22;39919;38.160;-122.260;2023-04-06T09:00:38;8.60;96.70
54006;DHT22;39919;38.160;-122.260;2023-04-06T09:03:08;8.50;97.00
54006;DHT22;39919;38.160;-122.260;2023-04-06T09:05:40;8.50;97.30
54006;DHT22;39919;38.160;-122.260;2023-04-06T09:08:09;8.60;97.50
54006;DHT22;39919;38.160;-122.260;2023-04-06T09:10:42;8.50;97.60
54006;DHT22;39919;38.160;-122.260;2023-04-06T09:13:12;8.50;97.30
54006;DHT22;39919;38.160;-122.260;2023-04-06T09:15:41;8.50;96.90
54006;DHT22;39919;38.160;-122.260;2023-04-06T09:18:10;8.40;96.50
54006;DHT22;39919;38.160;-122.260;2023-04-06T09:20:40;8.40;96.30
54006;DHT22;39919;38.160;-122.260;2023-04-06T09:23:18;8.40;96.10
54006;DHT22;39919;38.160;-122.260;2023-04-06T09:25:49;8.40;96.00
54006;DHT22;39919;38.160;-122.260;2023-04-06T09:28:18;8.30;96.20
54006;DHT22;39919;38.160;-122.260;2023-04-06T09:30:49;8.30;96.70
54006;DHT22;39919;38.160;-122.260;2023-04-06T09:33:22;8.30;97.00
54006;DHT22;39919;38.160;-122.260;2023-04-06T09:35:52;8.30;97.00
54006;DHT22;39919;38.160;-122.260;2023-04-06T09:38:21;8.30;97.00
54006;DHT22;39919;38.160;-122.260;2023-04-06T09:40:52;8.30;97.40
54006;DHT22;39919;38.160;-122.260;2023-04-06T09:43:25;8.20;97.50
54006;DHT22;39919;38.160;-122.260;2023-04-06T09:45:54;8.20;97.30
54006;DHT22;39919;38.160;-122.260;2023-04-06T09:48:25;8.10;97.50
54006;DHT22;39919;38.160;-122.260;2023-04-06T09:50:59;8.20;97.30
54006;DHT22;39919;38.160;-122.260;2023-04-06T09:53:30;8.10;97.10
54006;DHT22;39919;38.160;-122.260;2023-04-06T09:56:03;8.10;96.80
54006;DHT22;39919;38.160;-122.260;2023-04-06T09:58:35;8.10;96.50
54006;DHT22;39919;38.160;-122.260;2023-04-06T10:01:10;8.00;96.30
54006;DHT22;39919;38.160;-122.260;2023-04-06T10:03:47;8.00;96.20
54006;DHT22;39919;38.160;-122.260;2023-04-06T10:06:21;8.00;96.60
54006;DHT22;39919;38.160;-122.260;2023-04-06T10:08:53;8.00;97.00
54006;DHT22;39919;38.160;-122.260;2023-04-06T10:11:24;7.90;96.80
54006;DHT22;39919;38.160;-122.260;2023-04-06T10:13:53;7.90;97.40
54006;DHT22;39919;38.160;-122.260;2023-04-06T10:16:24;7.90;98.20
54006;DHT22;39919;38.160;-122.260;2023-04-06T10:19:00;7.90;98.50
54006;DHT22;39919;38.160;-122.260;2023-04-06T10:21:32;7.80;98.50
54006;DHT22;39919;38.160;-122.260;2023-04-06T10:24:06;7.80;98.60
54006;DHT22;39919;38.160;-122.260;2023-04-06T10:26:38;7.80;98.50
54006;DHT22;39919;38.160;-122.260;2023-04-06T10:29:07;7.70;98.30
54006;DHT22;39919;38.160;-122.260;2023-04-06T10:31:42;7.70;98.00
54006;DHT22;39919;38.160;-122.260;2023-04-06T10:34:12;7.70;97.80
54006;DHT22;39919;38.160;-122.260;2023-04-06T10:36:41;7.70;97.70
54006;DHT22;39919;38.160;-122.260;2023-04-06T10:39:10;7.70;97.50
54006;DHT22;39919;38.160;-122.260;2023-04-06T10:41:44;7.70;97.40
54006;DHT22;39919;38.160;-122.260;2023-04-06T10:44:24;7.60;97.20
54006;DHT22;39919;38.160;-122.260;2023-04-06T10:46:57;7.60;97.70
54006;DHT22;39919;38.160;-122.260;2023-04-06T10:49:27;7.70;97.90
54006;DHT22;39919;38.160;-122.260;2023-04-06T10:52:01;7.60;97.60
54006;DHT22;39919;38.160;-122.260;2023-04-06T10:54:34;7.70;97.60
54006;DHT22;39919;38.160;-122.260;2023-04-06T10:57:10;7.60;97.70
54006;DHT22;39919;38.160;-122.260;2023-04-06T10:59:43;7.70;98.10
54006;DHT22;39919;38.160;-122.260;2023-04-06T11:02:20;7.60;98.20
54006;DHT22;39919;38.160;-122.260;2023-04-06T11:04:56;7.70;98.40
54006;DHT22;39919;38.160;-122.260;2023-04-06T11:07:26;7.70;98.80
54006;DHT22;39919;38.160;-122.260;2023-04-06T11:09:57;7.70;99.10
54006;DHT22;39919;38.160;-122.260;2023-04-06T11:12:28;7.70;99.20
54006;DHT22;39919;38.160;-122.260;2023-04-06T11:14:58;7.70;99.30
54006;DHT22;39919;38.160;-122.260;2023-04-06T11:17:31;7.70;99.20
54006;DHT22;39919;38.160;-122.260;2023-04-06T11:20:01;7.70;99.10
54006;DHT22;39919;38.160;-122.260;2023-04-06T11:22:32;7.60;99.00
54006;DHT22;39919;38.160;-122.260;2023-04-06T11:25:08;7.70;98.80
54006;DHT22;39919;38.160;-122.260;2023-04-06T11:27:39;7.70;98.60
54006;DHT22;39919;38.160;-122.260;2023-04-06T11:30:09;7.70;98.40
54006;DHT22;39919;38.160;-122.260;2023-04-06T11:32:41;7.70;98.40
54006;DHT22;39919;38.160;-122.260;2023-04-06T11:35:20;7.60;98.10
54006;DHT22;39919;38.160;-122.260;2023-04-06T11:37:52;7.70;97.90
54006;DHT22;39919;38.160;-122.260;2023-04-06T11:40:24;7.60;97.70
54006;DHT22;39919;38.160;-122.260;2023-04-06T11:42:57;7.60;97.50
54006;DHT22;39919;38.160;-122.260;2023-04-06T11:45:27;7.60;97.40
54006;DHT22;39919;38.160;-122.260;2023-04-06T11:47:57;7.60;97.40
54006;DHT22;39919;38.160;-122.260;2023-04-06T11:50:32;7.60;97.40
54006;DHT22;39919;38.160;-122.260;2023-04-06T11:53:02;7.60;97.60
54006;DHT22;39919;38.160;-122.260;2023-04-06T11:55:38;7.50;97.90
54006;DHT22;39919;38.160;-122.260;2023-04-06T11:58:09;7.50;98.50
54006;DHT22;39919;38.160;-122.260;2023-04-06T12:00:38;7.50;98.50
54006;DHT22;39919;38.160;-122.260;2023-04-06T12:03:11;7.50;98.50
54006;DHT22;39919;38.160;-122.260;2023-04-06T12:05:41;7.50;98.50
54006;DHT22;39919;38.160;-122.260;2023-04-06T12:08:10;7.50;98.80
54006;DHT22;39919;38.160;-122.260;2023-04-06T12:10:39;7.40;99.00
54006;DHT22;39919;38.160;-122.260;2023-04-06T12:13:09;7.40;98.90
54006;DHT22;39919;38.160;-122.260;2023-04-06T12:15:38;7.40;99.40
54006;DHT22;39919;38.160;-122.260;2023-04-06T12:18:08;7.40;99.30
54006;DHT22;39919;38.160;-122.260;2023-04-06T12:20:37;7.40;99.70
54006;DHT22;39919;38.160;-122.260;2023-04-06T12:23:06;7.40;99.90
54006;DHT22;39919;38.160;-122.260;2023-04-06T12:25:35;7.30;99.90
54006;DHT22;39919;38.160;-122.260;2023-04-06T12:28:04;7.30;99.90
54006;DHT22;39919;38.160;-122.260;2023-04-06T12:30:35;7.30;99.90
54006;DHT22;39919;38.160;-122.260;2023-04-06T12:33:04;7.30;99.90
54006;DHT22;39919;38.160;-122.260;2023-04-06T12:35:34;7.30;99.90
54006;DHT22;39919;38.160;-122.260;2023-04-06T12:38:03;7.30;99.80
54006;DHT22;39919;38.160;-122.260;2023-04-06T12:40:37;7.20;99.70
54006;DHT22;39919;38.160;-122.260;2023-04-06T12:43:08;7.20;99.70
54006;DHT22;39919;38.160;-122.260;2023-04-06T12:45:41;7.20;99.70
54006;DHT22;39919;38.160;-122.260;2023-04-06T12:48:10;7.10;99.60
54006;DHT22;39919;38.160;-122.260;2023-04-06T12:50:39;7.10;99.70
54006;DHT22;39919;38.160;-122.260;2023-04-06T12:53:08;7.10;99.90
54006;DHT22;39919;38.160;-122.260;2023-04-06T12:55:40;7.10;99.90
54006;DHT22;39919;38.160;-122.260;2023-04-06T12:58:09;7.10;99.90
54006;DHT22;39919;38.160;-122.260;2023-04-06T13:00:40;7.10;99.90
54006;DHT22;39919;38.160;-122.260;2023-04-06T13:03:09;7.00;99.90
54006;DHT22;39919;38.160;-122.260;2023-04-06T13:05:48;7.00;99.90
54006;DHT22;39919;38.160;-122.260;2023-04-06T13:08:18;7.00;99.90
54006;DHT22;39919;38.160;-122.260;2023-04-06T13:10:48;7.00;99.90
54006;DHT22;39919;38.160;-122.260;2023-04-06T13:13:17;7.00;99.90
54006;DHT22;39919;38.160;-122.260;2023-04-06T13:15:48;6.90;99.90
54006;DHT22;39919;38.160;-122.260;2023-04-06T13:18:18;6.90;99.90
54006;DHT22;39919;38.160;-122.260;2023-04-06T13:20:51;6.90;99.90
54006;DHT22;39919;38.160;-122.260;2023-04-06T13:23:24;6.80;99.80
54006;DHT22;39919;38.160;-122.260;2023-04-06T13:25:58;6.80;99.60
54006;DHT22;39919;38.160;-122.260;2023-04-06T13:28:28;6.80;99.50
54006;DHT22;39919;38.160;-122.260;2023-04-06T13:31:02;6.70;99.40
54006;DHT22;39919;38.160;-122.260;2023-04-06T13:33:32;6.70;99.60
54006;DHT22;39919;38.160;-122.260;2023-04-06T13:36:01;6.70;99.90
54006;DHT22;39919;38.160;-122.260;2023-04-06T13:38:37;6.70;99.90
54006;DHT22;39919;38.160;-122.260;2023-04-06T13:41:07;6.70;99.90
54006;DHT22;39919;38.160;-122.260;2023-04-06T13:43:36;6.60;99.90
54006;DHT22;39919;38.160;-122.260;2023-04-06T13:46:09;6.70;99.90
54006;DHT22;39919;38.160;-122.260;2023-04-06T13:48:38;6.60;99.90
54006;DHT22;39919;38.160;-122.260;2023-04-06T13:51:13;6.60;99.90
54006;DHT22;39919;38.160;-122.260;2023-04-06T13:53:43;6.60;99.90
54006;DHT22;39919;38.160;-122.260;2023-04-06T13:56:12;6.60;99.90
54006;DHT22;39919;38.160;-122.260;2023-04-06T13:58:43;6.50;99.90
54006;DHT22;39919;38.160;-122.260;2023-04-06T14:01:28;6.60;99.90
54006;DHT22;39919;38.160;-122.260;2023-04-06T14:03:57;6.50;99.90
54006;DHT22;39919;38.160;-122.260;2023-04-06T14:06:26;6.50;99.90
54006;DHT22;39919;38.160;-122.260;2023-04-06T14:08:55;6.60;99.90
54006;DHT22;39919;38.160;-122.260;2023-04-06T14:11:24;6.50;99.90
54006;DHT22;39919;38.160;-122.260;2023-04-06T14:13:53;6.50;99.90
54006;DHT22;39919;38.160;-122.260;2023-04-06T14:16:24;6.60;99.90
54006;DHT22;39919;38.160;-122.260;2023-04-06T14:18:57;6.60;99.90
54006;DHT22;39919;38.160;-122.260;2023-04-06T14:21:26;6.60;99.90
54006;DHT22;39919;38.160;-122.260;2023-04-06T14:23:55;6.70;99.90
54006;DHT22;39919;38.160;-122.260;2023-04-06T14:26:26;6.70;99.90
54006;DHT22;39919;38.160;-122.260;2023-04-06T14:28:55;6.70;99.90
54006;DHT22;39919;38.160;-122.260;2023-04-06T14:31:25;6.80;99.90
54006;DHT22;39919;38.160;-122.260;2023-04-06T14:33:56;6.80;99.90
54006;DHT22;39919;38.160;-122.260;2023-04-06T14:36:25;6.80;99.90
54006;DHT22;39919;38.160;-122.260;2023-04-06T14:38:57;6.90;99.90
54006;DHT22;39919;38.160;-122.260;2023-04-06T14:41:30;7.00;99.90
54006;DHT22;39919;38.160;-122.260;2023-04-06T14:44:01;7.10;99.90
54006;DHT22;39919;38.160;-122.260;2023-04-06T14:46:30;7.20;99.90
54006;DHT22;39919;38.160;-122.260;2023-04-06T14:49:01;7.30;99.90
54006;DHT22;39919;38.160;-122.260;2023-04-06T14:51:31;7.30;99.90
54006;DHT22;39919;38.160;-122.260;2023-04-06T14:54:03;7.50;99.90
54006;DHT22;39919;38.160;-122.260;2023-04-06T14:56:32;7.60;99.90
54006;DHT22;39919;38.160;-122.260;2023-04-06T14:59:01;7.80;99.90
54006;DHT22;39919;38.160;-122.260;2023-04-06T15:01:33;8.00;99.90
54006;DHT22;39919;38.160;-122.260;2023-04-06T15:04:05;8.20;99.90
54006;DHT22;39919;38.160;-122.260;2023-04-06T15:06:39;8.50;99.90
54006;DHT22;39919;38.160;-122.260;2023-04-06T15:09:08;8.70;99.90
54006;DHT22;39919;38.160;-122.260;2023-04-06T15:11:37;8.90;99.90
54006;DHT22;39919;38.160;-122.260;2023-04-06T15:14:07;9.20;99.90
54006;DHT22;39919;38.160;-122.260;2023-04-06T15:16:36;9.40;99.90
54006;DHT22;39919;38.160;-122.260;2023-04-06T15:19:10;9.60;99.90
54006;DHT22;39919;38.160;-122.260;2023-04-06T15:21:39;9.90;99.90
54006;DHT22;39919;38.160;-122.260;2023-04-06T15:24:08;10.10;99.80
54006;DHT22;39919;38.160;-122.260;2023-04-06T15:26:37;10.30;99.40
54006;DHT22;39919;38.160;-122.260;2023-04-06T15:29:06;10.50;98.90
54006;DHT22;39919;38.160;-122.260;2023-04-06T15:31:35;10.60;98.60
54006;DHT22;39919;38.160;-122.260;2023-04-06T15:34:05;10.80;98.90
54006;DHT22;39919;38.160;-122.260;2023-04-06T15:36:37;11.20;99.90
54006;DHT22;39919;38.160;-122.260;2023-04-06T15:39:09;11.90;99.90
54006;DHT22;39919;38.160;-122.260;2023-04-06T15:41:39;12.80;99.60
54006;DHT22;39919;38.160;-122.260;2023-04-06T15:46:37;15.50;88.00
54006;DHT22;39919;38.160;-122.260;2023-04-06T15:49:06;16.20;87.80
54006;DHT22;39919;38.160;-122.260;2023-04-06T15:51:37;17.30;77.00
54006;DHT22;39919;38.160;-122.260;2023-04-06T15:54:07;18.50;73.50
54006;DHT22;39919;38.160;-122.260;2023-04-06T15:56:36;19.60;66.40
54006;DHT22;39919;38.160;-122.260;2023-04-06T15:59:05;20.60;63.90
54006;DHT22;39919;38.160;-122.260;2023-04-06T16:01:37;21.50;62.50
54006;DHT22;39919;38.160;-122.260;2023-04-06T16:04:08;22.40;58.10
54006;DHT22;39919;38.160;-122.260;2023-04-06T16:06:40;23.20;57.70
54006;DHT22;39919;38.160;-122.260;2023-04-06T16:09:15;24.10;57.70
54006;DHT22;39919;38.160;-122.260;2023-04-06T16:14:13;25.80;51.20
54006;DHT22;39919;38.160;-122.260;2023-04-06T16:16:42;26.20;52.80
54006;DHT22;39919;38.160;-122.260;2023-04-06T16:19:11;27.00;52.20
54006;DHT22;39919;38.160;-122.260;2023-04-06T16:21:42;27.60;51.00
54006;DHT22;39919;38.160;-122.260;2023-04-06T16:24:11;28.30;50.20
54006;DHT22;39919;38.160;-122.260;2023-04-06T16:26:40;29.00;48.90
54006;DHT22;39919;38.160;-122.260;2023-04-06T16:29:10;29.50;48.20
54006;DHT22;39919;38.160;-122.260;2023-04-06T16:31:39;30.10;47.50
54006;DHT22;39919;38.160;-122.260;2023-04-06T16:34:12;30.60;46.80
54006;DHT22;39919;38.160;-122.260;2023-04-06T16:39:12;31.70;42.80
54006;DHT22;39919;38.160;-122.260;2023-04-06T16:41:43;32.00;41.70
54006;DHT22;39919;38.160;-122.260;2023-04-06T16:44:41;32.20;41.50